Weather observations for the past three days for
South St. Paul Municipal-Richard E. Flemi
Imperial (Metric)
Date Time (cdt) Wind (mph) Vis. (mi.) Weather Sky Cond. Temperature (ºF) Relative Humidity Wind Chill (°F) Heat Index (°F) Pressure Precipitation (in)
Air Dwpt 6 hour altimeter (in) sea level (mb) 1 hr 3 hr 6 hr
Max. Min.
05 05:35 Calm 3.00 Fog/Mist OVC004 67.5 67.5 100% 29.99 0.0
05 05:15 Calm 3.00 Fog/Mist OVC004 67.3 67.3 100% 30 0.0
05 04:55 NE 5 7.00 Overcast OVC004 67.3 67.1 99% 29.98 0.0
05 04:35 NE 5 4.00 Fog/Mist OVC004 67.1 67.1 100% 29.98 0.0
05 04:15 NE 5 7.00 Overcast OVC004 67.5 66.9 98% 29.98 0.0
05 03:55 NE 5 7.00 Overcast OVC006 67.6 66.6 96% 29.99 0.0
05 03:35 N 5 10.00 Overcast OVC006 68 66.6 95% 29.99 0.0
05 03:15 NE 6 7.00 Overcast OVC006 67.8 66.6 96% 29.99 0.0
05 02:55 N 7 7.00 Overcast OVC006 67.6 66.4 96% 29.99 0.0
05 02:35 N 6 10.00 Overcast OVC006 67.5 66.4 96% 30 0.0
05 02:15 N 6 10.00 Overcast OVC006 67.5 66.2 96% 30 0.0
05 01:55 N 7 10.00 Mostly Cloudy BKN008 BKN011 68 65.8 93% 30 0.0
05 01:35 N 7 10.00 Partly Cloudy SCT008 68.4 66.2 93% 30 0.0
05 01:15 N 5 10.00 Fair CLR 68.9 65.8 90% 29.99 0.0
05 00:55 N 5 10.00 Fair CLR 69.3 66 83.8 69.3 89% 29.99 0.0
05 00:35 N 3 10.00 Fair CLR 69.8 66 88% 29.98 0.0
05 00:15 N 5 10.00 Fair CLR 70.5 65.8 85% 29.97 0.0
04 23:55 N 3 10.00 Fair CLR 71.1 65.8 84% 29.98 0.0
04 23:35 N 3 10.00 Fair CLR 71.4 65.7 82% 29.98 0.0
04 23:15 Calm 10.00 Fair CLR 72.5 65.5 79% 29.97 0.0
04 22:55 N 6 10.00 Fair CLR 72.9 65.5 78% 29.98 0.0
04 22:35 N 6 10.00 Fair CLR 73.4 65.3 76% 29.98 0.0
04 22:15 N 7 10.00 Fair CLR 74.3 65.3 74% 29.97 0.0
04 21:55 N 8 10.00 Fair CLR 75.2 65.5 72% 77 29.97 0.0
04 21:35 N 8 7.00 Fair CLR 76.3 65.8 70% 78 29.96 0.0
04 21:15 N 8 10.00 Fair CLR 77.9 66.2 67% 80 29.95 0.0
04 20:55 N 9 G 16 10.00 Fair CLR 79.3 66.6 65% 81 29.95 0.0
04 20:35 N 8 10.00 Fair CLR 80.1 66.6 64% 82 29.94 0.0
04 20:15 N 6 10.00 Fair CLR 80.8 66.7 62% 83 29.93 0.0
04 19:55 N 8 10.00 Fair CLR 81 66.4 61% 83 29.93 0.0
04 19:35 N 6 10.00 Fair CLR 82.4 66.7 59% 85 29.92 0.0
04 19:15 N 5 10.00 Fair CLR 83.3 67.8 60% 86 29.92 0.0
04 18:55 N 7 10.00 Fair CLR 84.2 68.2 87.3 82.6 59% 88 29.92 0.0
04 18:35 N 6 10.00 Fair CLR 84.9 68.4 58% 88 29.92 0.0
04 18:15 N 7 10.00 Fair CLR 85.5 69.8 60% 90 29.91 0.0
04 17:55 N 6 10.00 Fair CLR 86.2 70.2 59% 91 29.91 0.0
04 17:35 N 9 10.00 Fair CLR 86.4 70.2 59% 91 29.9 0.0
04 17:15 N 7 10.00 Fair CLR 86.5 70.2 58% 91 29.9 0.0
04 16:55 N 8 10.00 Fair CLR 86.9 69.8 57% 92 29.89 0.0
04 16:35 NW 8 10.00 Fair CLR 86.7 69.8 57% 91 29.89 0.0
04 16:15 NW 6 7.00 Fair CLR 87.3 70 57% 92 29.9 0.0
04 15:55 N 6 10.00 Fair CLR 86.5 70.3 59% 92 29.9 0.0
04 15:35 N 8 10.00 Fair CLR 85.8 70.7 61% 91 29.89 0.0
04 15:15 N 3 10.00 Fair CLR 85.5 70.9 62% 91 29.9 0.0
04 14:55 N 7 7.00 Fair CLR 84.4 70.9 64% 89 29.9 0.0
04 14:35 N 7 7.00 Partly Cloudy SCT019 84.4 71.2 65% 90 29.9 0.0
04 14:15 N 7 7.00 Mostly Cloudy BKN019 83.3 71.4 68% 88 29.9 0.0
04 13:55 N 9 7.00 Overcast OVC019 82.9 71.4 68% 88 29.9 0.0
04 13:35 N 9 10.00 Mostly Cloudy BKN019 83.8 71.4 66% 89 29.9 0.0
04 13:15 N 10 7.00 Mostly Cloudy BKN017 83.3 71.8 68% 89 29.9 0.0
04 12:55 N 10 10.00 Partly Cloudy SCT017 83.7 72.1 85.8 71.8 68% 89 29.9 0.0
04 12:35 N 10 10.00 Partly Cloudy SCT015 83.5 72.5 70% 89 29.89 0.0
04 12:15 N 10 10.00 Fair CLR 84 72.7 69% 90 29.89 0.0
04 11:55 N 8 10.00 Fair CLR 85.3 72.9 66% 92 29.89 0.0
04 11:35 N 9 10.00 Fair CLR 85.1 72.9 67% 92 29.88 0.0
04 11:15 N 6 7.00 Fair CLR 85.1 72.5 66% 91 29.88 0.0
04 10:55 N 8 10.00 Fair CLR 85.5 72.9 66% 92 29.87 0.0
04 10:35 N 3 10.00 Fair CLR 84.7 72.9 68% 91 29.86 0.0
04 10:15 Calm 10.00 Fair CLR 82.9 73 72% 89 29.86 0.0
04 09:55 Calm 10.00 Fair CLR 81.5 73 76% 87 29.85 0.0
04 09:35 Calm 10.00 Fair CLR 80.8 73 77% 85 29.85 0.0
04 09:15 Calm 7.00 Fair CLR 79.5 73.6 82% 83 29.85 0.0
04 08:55 Calm 10.00 Fair CLR 78.1 73.4 86% 81 29.86 0.0
04 08:35 Calm 7.00 Fair CLR 77 73.6 89% 78 29.85 0.0
04 08:15 Calm 7.00 Fair CLR 75.7 73.6 93% 75 29.85 0.0
04 07:55 Calm 7.00 Fair CLR 74.5 73.8 98% 29.84 0.0
04 07:35 Calm 7.00 Fair CLR 73 73 100% 29.84 0.0
04 07:15 Calm 7.00 Fair CLR 72.1 72.1 100% 29.83 0.0
04 06:55 N 3 7.00 Fair CLR 71.2 71.2 76.3 71.2 100% 29.83 0.0
04 06:35 Calm 7.00 Fair CLR 71.6 71.6 100% 29.83 0.0
04 06:15 Calm 7.00 Fair CLR 72.1 72.1 100% 29.82 0.0
04 05:55 Calm 7.00 Fair CLR 72.9 72.9 100% 29.82 0.0
04 05:35 Calm 7.00 Fair CLR 72.7 72.5 99% 29.83 0.0
04 05:15 N 5 10.00 Fair CLR 73 73 100% 29.83 0.0
04 04:55 Calm 7.00 Fair CLR 73 73 100% 29.82 0.0
04 04:35 Calm 7.00 Fair CLR 73 72.9 99% 29.82 0.0
04 04:15 Calm 10.00 Fair CLR 73.4 73 99% 29.81 0.0
04 03:55 Calm 7.00 Fair CLR 74.3 73.4 97% 29.81 0.0
04 03:35 Calm 7.00 Fair CLR 74.3 73.4 97% 29.81 0.0
04 03:15 Calm 7.00 Fair CLR 74.7 72.9 94% 29.8 0.0
04 02:55 Calm 10.00 Partly Cloudy SCT120 75.2 73.2 94% 74 29.8 0.0
04 02:35 Calm 7.00 Mostly Cloudy BKN120 75.6 73.4 93% 75 29.8 0.0
04 02:15 Calm 7.00 Overcast OVC120 75.7 73.4 92% 75 29.81 0.0
04 01:55 Calm 10.00 Overcast OVC120 75.2 73.4 94% 74 29.81 0.0
04 01:35 Calm 10.00 Overcast OVC120 75.7 73 91% 75 29.81 0.0
04 01:15 Calm 7.00 Mostly Cloudy BKN120 75.9 73.2 91% 76 29.81 0.0
04 00:55 Calm 7.00 Partly Cloudy SCT120 76.3 72.7 85.1 76.3 89% 77 29.81 0.0
04 00:35 SE 3 10.00 Partly Cloudy SCT120 77 72.5 86% 78 29.81 0.0
04 00:15 S 5 10.00 Partly Cloudy SCT120 77.2 72.5 86% 79 29.81 0.0
03 23:55 SE 5 10.00 Mostly Cloudy BKN120 77.4 72.1 84% 79 29.81 0.0
03 23:35 SE 6 10.00 Mostly Cloudy BKN120 77.4 72.1 84% 79 29.81 0.0
03 23:15 SE 3 10.00 Partly Cloudy SCT120 77.2 71.8 84% 79 29.8 0.0
03 22:55 SE 3 7.00 Fair CLR 77.9 71.6 81% 80 29.81 0.0
03 22:35 SE 6 10.00 Fair CLR 78.3 71.2 79% 81 29.8 0.0
03 22:15 SE 6 7.00 Fair CLR 79 70.9 76% 82 29.81 0.0
03 21:55 SE 3 10.00 Fair CLR 79 70.7 76% 82 29.81 0.0
03 21:35 SE 3 10.00 Partly Cloudy SCT120 79.2 70 74% 82 29.81 0.0
03 21:15 SE 3 10.00 Partly Cloudy SCT120 79.7 69.8 72% 83 29.81 0.0
03 20:55 Calm 10.00 Fair CLR 79.9 69.4 71% 83 29.81 0.0
03 20:35 SE 5 10.00 Partly Cloudy SCT040 80.6 69.4 69% 84 29.8 0.0
03 20:15 SE 5 10.00 Fair CLR 81.5 68.9 66% 85 29.79 0.0
03 19:55 SE 6 10.00 Fair CLR 82.2 68.5 63% 85 29.79 0.0
03 19:35 SE 6 10.00 Fair CLR 83.3 68.2 60% 86 29.79 0.0
03 19:15 SE 8 10.00 Fair CLR 84.2 68 58% 87 29.79 0.0
03 18:55 SE 10 10.00 Fair CLR 85.1 67.8 87.6 77 56% 88 29.79 0.0 0.01
03 18:35 SE 10 10.00 Fair CLR 85.6 67.3 54% 89 29.78 0.0
03 18:15 SE 8 10.00 Fair CLR 86.2 67.3 53% 89 29.77 0.0
03 17:55 SE 12 G 18 7.00 Fair CLR 86.2 67.1 53% 89 29.77 0.0
03 17:35 SE 12 G 17 10.00 Fair CLR 86.2 67.1 53% 89 29.77 0.0
03 17:15 SE 12 10.00 Fair CLR 86.5 67.1 52% 89 29.77 0.0
03 16:55 SE 10 7.00 Fair CLR 85.3 66.2 53% 88 29.78 0.0 0.01
03 16:35 SE 12 G 17 10.00 Light Rain SCT050 SCT065 SCT090 84.6 67.5 57% 88 29.78 0.0 0.01
03 16:15 SE 10 10.00 Mostly Cloudy BKN050 BKN065 BKN090 85.3 65.3 51% 87 29.8 0.0
03 15:35 SE 12 G 18 10.00 Fair CLR 86.7 66.2 51% 89 29.8 0.0
03 15:15 SE 13 G 22 7.00 Fair CLR 86.4 67.1 53% 89 29.8 0.0
03 14:55 SE 8 10.00 Partly Cloudy SCT110 86.2 70 59% 91 29.8 0.0
03 14:35 SE 8 7.00 Partly Cloudy SCT110 84.9 69.6 60% 89 29.81 0.0
03 14:15 E 6 10.00 Partly Cloudy SCT120 81.9 69.1 65% 85 29.83 0.0
03 13:55 E 3 10.00 Thunderstorm in Vicinity SCT039 SCT050 BKN085 79.7 68.7 69% 82 29.83 0.0
03 13:15 Calm 10.00 Thunderstorm Light Rain SCT050 SCT060 SCT070 77.9 68.9 74% 80 29.84 0.0
03 12:55 SE 5 10.00 Fair CLR 78.4 68.4 78.4 71.6 71% 81 29.83 0.0 0.01
03 12:35 E 6 10.00 Partly Cloudy SCT080 SCT110 76.1 68.9 78% 77 29.83 0.0
03 12:15 SE 6 10.00 Overcast BKN080 OVC110 76.6 68 75% 78 29.85 0.0
03 11:55 SE 5 10.00 Overcast OVC080 77.5 68 73% 79 29.85 0.0
03 11:35 SE 5 10.00 Thunderstorm in Vicinity BKN080 78.1 68 71% 80 29.85 0.0
03 11:15 SE 6 7.00 Mostly Cloudy BKN080 BKN095 BKN120 77.9 68 72% 80 29.85 0.0
03 10:55 SE 6 10.00 Mostly Cloudy BKN095 BKN120 76.6 67.8 74% 78 29.84 0.0
03 10:35 SE 6 10.00 Overcast OVC095 76.3 67.1 73% 78 29.86 0.0
03 10:15 SE 5 7.00 Overcast OVC095 76.5 67.6 74% 78 29.85 0.0
03 09:55 E 6 7.00 Mostly Cloudy BKN085 77.4 68 73% 79 29.85 0.0 0.01
03 09:35 Calm 7.00 Partly Cloudy SCT085 76.1 68.2 77% 77 29.85 0.0
03 09:15 Calm 7.00 Fair CLR 75.6 68.9 80% 76 29.85 0.0
03 08:55 Calm 7.00 Fair CLR 74.7 68.7 82% 29.85 0.0
03 08:35 Calm 7.00 Partly Cloudy SCT100 73 69.1 87% 29.85 0.0
03 08:15 SE 3 7.00 Overcast OVC100 72 69.1 91% 29.85 0.0
03 07:55 SE 6 7.00 Overcast OVC100 72 69.3 91% 29.85 0.0 0.01
03 07:35 SE 6 10.00 Mostly Cloudy BKN100 BKN120 72 69.8 93% 29.84 0.0 0.01
03 07:15 SE 5 10.00 Thunderstorm Light Rain in Vicinity SCT015 SCT065 BKN090 72 68.9 90% 29.85 0.0 0.01
03 06:55 S 12 G 18 5.00 Rain SCT046 SCT050 BKN065 75.2 69.1 76.3 72.5 81% 76 29.86 0.0
03 06:35 S 6 10.00 Partly Cloudy SCT042 SCT065 SCT085 74.3 69.8 86% 29.84 0.0
03 05:55 Calm 10.00 Overcast SCT036 BKN055 OVC120 72.9 70.7 93% 29.85 0.0
03 05:35 SE 6 10.00 Partly Cloudy SCT080 SCT120 72.5 70.3 93% 29.85 0.0
03 05:15 SE 3 10.00 Partly Cloudy SCT120 72.5 69.8 91% 29.84 0.0
03 04:55 SE 5 10.00 Fair CLR 73.2 69.8 89% 29.84 0.0
03 04:35 Calm 10.00 Fair CLR 73.4 69.6 88% 29.84 0.0
03 04:15 SE 3 10.00 Fair CLR 73.8 69.8 88% 29.84 0.0
03 03:55 Calm 10.00 Fair CLR 73.8 69.3 86% 29.83 0.0
03 03:35 Calm 10.00 Fair CLR 73.2 68.9 86% 29.83 0.0
03 03:15 Calm 10.00 Fair CLR 74.3 68.9 83% 29.83 0.0
03 02:55 Calm 10.00 Fair CLR 74.5 68.5 82% 29.85 0.0
03 02:35 Calm 10.00 Fair CLR 75 68.4 80% 76 29.84 0.0
03 02:15 Calm 10.00 Fair CLR 75.2 68.4 79% 76 29.85 0.0
03 01:55 Calm 10.00 Fair CLR 75.7 68.2 77% 77 29.85 0.0
03 01:35 Calm 10.00 Fair CLR 75.7 68 77% 77 29.85 0.0
03 01:15 Calm 10.00 Fair CLR 76.1 68 76% 77 29.86 0.0
03 00:55 Calm 10.00 Fair CLR 76.3 67.5 86.4 76.3 74% 78 29.86 0.0
03 00:35 Calm 10.00 Fair CLR 76.6 67.3 73% 78 29.85 0.0
03 00:15 Calm 10.00 Fair CLR 77 67.3 72% 79 29.85 0.0
02 23:55 Calm 10.00 Fair CLR 77.4 67.1 71% 79 29.86 0.0
02 23:35 Calm 10.00 Fair CLR 77.9 67.1 70% 80 29.86 0.0
02 23:15 Calm 10.00 Fair CLR 78.3 67.3 69% 80 29.86 0.0
02 22:55 Calm 10.00 Partly Cloudy SCT042 SCT048 78.8 67.3 68% 81 29.87 0.0
02 22:35 E 6 10.00 Mostly Cloudy BKN044 79.3 67.1 66% 82 29.87 0.0
02 22:15 E 5 10.00 Overcast OVC044 79.9 67.5 66% 82 29.87 0.0
02 21:55 Calm 10.00 Mostly Cloudy SCT042 BKN049 79.9 67.5 66% 82 29.87 0.0
02 21:35 Calm 10.00 Partly Cloudy SCT050 81 67.3 63% 83 29.86 0.0
02 21:15 Calm 10.00 Partly Cloudy SCT055 81.7 67.1 61% 84 29.86 0.0
02 20:55 Calm 10.00 Fair CLR 82.4 67.1 60% 85 29.86 0.0
02 20:35 Calm 10.00 Fair CLR 82.8 66.7 59% 85 29.85 0.0
02 20:15 Calm 10.00 Fair CLR 83.5 66.4 56% 86 29.85 0.0
02 19:55 E 5 10.00 Fair CLR 84.9 65.5 52% 87 29.84 0.0
02 19:35 Calm 10.00 Fair CLR 85.6 65.3 51% 88 29.85 0.0
02 19:15 SE 3 10.00 Fair CLR 86.2 64.9 49% 88 29.84 0.0
02 18:55 SE 3 10.00 Fair CLR 86.5 64.6 88.5 80.8 48% 88 29.84 0.0
02 18:35 SE 3 10.00 Fair CLR 87.3 64.4 47% 89 29.85 0.0
02 18:15 S 6 10.00 Fair CLR 87.6 64 46% 89 29.85 0.0
02 17:55 Calm 10.00 Fair CLR 87.8 63.1 44% 89 29.85 0.0
02 17:35 S 3 10.00 Fair CLR 87.6 62.6 43% 88 29.85 0.0
02 17:15 S 6 10.00 Fair CLR 88.5 61.9 41% 89 29.85 0.0
02 16:55 S 3 10.00 Fair CLR 88.2 61.3 41% 88 29.85 0.0
02 16:35 SW 7 10.00 Fair CLR 87.8 62.1 42% 88 29.85 0.0
02 16:15 SE 5 10.00 Fair CLR 87.6 61.9 42% 88 29.85 0.0
02 15:55 SE 3 10.00 Fair CLR 86.9 61.5 43% 87 29.85 0.0
02 15:35 SE 5 10.00 Fair CLR 86.5 61.7 43% 87 29.86 0.0
02 15:15 S 5 10.00 Fair CLR 87.3 61.7 42% 88 29.86 0.0
02 14:55 SE 3 10.00 Fair CLR 86.5 61.3 43% 87 29.88 0.0
02 14:35 S 6 10.00 Fair CLR 85.3 61.7 45% 86 29.89 0.0
02 14:15 NE 3 10.00 Fair CLR 84.4 61.9 47% 85 29.89 0.0
02 13:55 E 6 10.00 Fair CLR 84.7 62.2 47% 85 29.89 0.0
02 13:35 Calm 10.00 Fair CLR 82.6 61.9 50% 83 29.89 0.0
02 13:15 Calm 10.00 Fair CLR 81.7 62.1 51% 83 29.9 0.0
02 12:55 E 3 7.00 Fair CLR 81.5 63.3 81.7 65.5 54% 83 29.91 0.0
02 12:35 S 3 10.00 Fair CLR 79.9 63.1 57% 81 29.92 0.0
02 12:15 SE 5 10.00 Fair CLR 79 61.9 56% 80 29.93 0.0
02 11:55 SE 3 10.00 Fair CLR 78.3 62.8 59% 80 29.92 0.0
02 11:35 S 3 7.00 Fair CLR 77.5 63.5 62% 79 29.93 0.0
02 11:15 SE 5 7.00 Fair CLR 77.4 63.1 62% 79 29.92 0.0
02 10:55 S 5 10.00 Fair CLR 75.6 62.8 65% 78 29.92 0.0
02 10:35 SE 5 10.00 Fair CLR 75 62.6 65% 77 29.92 0.0
02 10:15 S 3 10.00 Fair CLR 74.7 62.8 67% 29.92 0.0
02 09:55 SE 6 10.00 Fair CLR 73 62.6 70% 29.91 0.0
02 09:35 Calm 10.00 Partly Cloudy SCT110 71.6 63.7 76% 29.92 0.0
02 09:15 Calm 10.00 Mostly Cloudy BKN110 70.5 63.7 79% 29.92 0.0
02 08:55 Calm 10.00 Partly Cloudy SCT120 68.4 63.3 84% 29.93 0.0
02 08:35 NE 5 10.00 Partly Cloudy SCT050 67.3 63.1 87% 29.92 0.0
02 08:15 Calm 10.00 Partly Cloudy SCT050 67.1 63.1 87% 29.92 0.0
02 07:55 E 3 10.00 Partly Cloudy SCT008 SCT050 66.7 63.5 89% 29.92 0.0
02 07:35 Calm 7.00 Partly Cloudy SCT055 65.8 63.3 92% 29.92 0.0
02 07:15 E 3 10.00 Partly Cloudy SCT055 65.5 62.8 91% 29.93 0.0
02 06:55 Calm 10.00 Partly Cloudy SCT060 65.7 62.2 73.4 65.7 89% 29.93 0.0 0.04
02 06:35 SE 6 10.00 Mostly Cloudy BKN060 BKN075 66.4 61.7 85% 29.93 0.0
02 06:15 SE 3 10.00 Mostly Cloudy BKN060 66.6 61.9 85% 29.94 0.0
02 05:55 S 7 10.00 Partly Cloudy SCT070 SCT120 65.7 62.6 90% 29.94 0.0
Date Time (cdt) Wind (mph) Vis. (mi.) Weather Sky Cond. Air Dwpt Max. Min. Relative Humidity Wind Chill (°F) Heat Index (°F) altimeter (in) sea level (mb) 1 hr 3 hr 6 hr
6 hour
Temperature (ºF) Pressure Precipitation (in)